Estación Meteorológica Peña el Pijo (Robertgarden) [ 01/30/23 14:20:35 CET ]

Fecha Hora Presion(HPa) Temp (°C) Humedad % Rocio (°C) Viento ( m/s) Direccion Lluvia 1Hora(mm) Lluvia 24H(mm) LLuvia Total(mm)
2012-Jul-21 01:01:11 1012.800 17.3 33 0.8         167.83
2012-Jul-21 02:01:14 1013.000 16.3 36 1.1         167.83
2012-Jul-21 03:01:45 1012.600 17.7 34 1.5         167.83
2012-Jul-21 04:03:18 1012.600 16.5 37 1.6         167.83
2012-Jul-21 05:01:15 1012.500 14.8 41 1.6         167.83
2012-Jul-21 06:01:17 1012.600 13.6 43 1.2         167.83
2012-Jul-21 07:01:13 1012.700 13.3 43 0.9         167.83
2012-Jul-21 08:01:14 1013.000 13.6 48 2.8         167.83
2012-Jul-21 09:01:14 1013.000 21.4 42 7.9         167.83
2012-Jul-21 10:01:13 1012.900 27.8 29 8.1         167.83
2012-Jul-21 11:01:17 1012.900 31.7 20 6.1         167.83
2012-Jul-21 12:01:16 1013.000 32.4 19 5.7         167.83
2012-Jul-21 13:01:11 1012.900 34.7 16 4.5 0.4 E     167.83
2012-Jul-21 14:01:14 1012.700 35.3 15 4.0 0.3 ENE     167.83
2012-Jul-21 15:01:17 1012.400 36.3 14 3.8         167.83
2012-Jul-21 16:01:12 1012.200 37.9 13 4.1         167.83
2012-Jul-21 17:01:16 1012.200 38.5 12 3.6         167.83
2012-Jul-21 18:01:11 1012.300 35.6 23 11.1         167.83
2012-Jul-21 19:01:17 1012.500 33.0 30 13.2 0.4 NE     167.83
2012-Jul-21 20:01:16 1012.800 29.9 37 13.6 0.4 ENE     167.83
2012-Jul-21 21:01:13 1013.200 28.1 39 12.8         167.83
2012-Jul-21 22:01:18 1013.600 25.9 44 12.7         167.83
2012-Jul-21 23:01:13 1014.700 24.1 53 13.9 0.9 NNE     167.83

Temperatura Máxima:38°    Temperatura Mínima:13°
Presión Máxima:1014.700 Hpa    Presión Mínima:1012.200 Hpa


Volver